Terminal Aerodrome Forecast
Issued by NWS

Home | Current Version | Previous Version | Text Only | Print | Product List | Glossary Off
Versions: 1 2 3 4 5 6 7 8 9 10 11 12 13 14 15 16 17 18 19 20 21 22 23

000
FTUS42 KMHX 290500 RRA
TAFISO
TAF
KISO 290542Z 2906/3006 00000KT 5SM BR BKN150
     FM290800 00000KT 2SM BR SCT007 BKN150
     FM291300 35005KT P6SM SCT050 BKN100
     FM291700 35005KT P6SM VCSH SCT025 OVC050
     FM300000 03005KT 5SM -RA SCT020 OVC040
      AMD LTD TO CLD VIS AND WIND=

USA.gov is the U.S. government's official web portal to all federal, state and local government web resources and services.